Delta Virtual Airport Information Service

Singapore Changi Airport

ICAO: WSSS Country: Singapore
Latitude: 1.35019 Longitude: 103.994
Latest Arrival : SIA423 (VABB-WSSS) Latest Departure : SIA494 (WSSS-OMDB)


WX CaptureLIVE
Data provided by noaa.gov | Fetched at 04:31:44

METAR : WSSS 300900Z 17009KT 110V210 9999 FEW016 FEW018CB FEW020TCU SCT050 29/24 Q1005 NOSIG

TAF : WSSS 300800Z 3008/0112 15008KT 9999 FEW015 SCT020


Runway Data for WSSS
Data provided by openaviationdata.com

Runway ID Mag Var Hdg Length Elevation Surface ILS Freq ILS Id ILS Slope
02L 0 22° 13152 ft 22 ft Bituminous 110.9 ICW 3
02C 0 22° 13179 ft 22 ft Bituminous 108.3 ICE 3
20R 0 202° 13152 ft 22 ft Bituminous 108.9 ICH 3
20C 0 202° 13179 ft 22 ft Bituminous 109.7 ICC 3

Singapore Changi Airport, Singapore
Use only for reference purposes



Not for navigational purposes.